Royal, Nebraska
Current Conditions -  °F | °C
As of 6:15 AM on Tuesday 27 Jan 2015 (Local Time) from KONL Reporting Station
Clear Clear  
Wind Chill: 28°   Ceiling: Unl
Heat Index: 34°   Visibility: 10mi
Dew Point: 30°   Wind: 6mph
Humidity: 86%   Direction: 150°SSE
Pressure: 30"   Gusts: NA
Location:  42.33°N, 98.13°W
Report Text: KONL 271215Z AUTO 15005KT 10SM CLR 01/M01 A3000 RMK AO2 T00091012
Loading
Personal Weather Stations






























Interactive Weather Map New forecast layout! Learn more

10-Day Weather Forecast

Advertisements
Track Severe Weather on mobile